Time;durP1;ratioP1;P1;durP2;ratioP2;P2;SDS_P1;SDS_P2;PMS_P1;PMS_P2;Temp;Humidity;BMP_temperature;BMP_pressure;BME280_temperature;BME280_humidity;BME280_pressure;Samples;Min_cycle;Max_cycle;Signal;HPM_P1;HPM_P2
2024/04/07 00:01:52;;;;;;;;;;;;;;;12.83;98.71;96833.23;108516;1281;124936;-89
2024/04/07 00:04:18;;;;;;;;;;;;;;;12.83;98.80;96830.84;108602;1281;22528;-90
2024/04/07 00:06:45;;;;;;;;;;;;;;;12.84;98.85;96833.46;108566;1281;22511;-89
2024/04/07 00:09:12;;;;;;;;;;;;;;;12.84;98.89;96827.17;108461;1275;125429;-89
2024/04/07 00:11:39;;;;;;;;;;;;;;;12.84;98.92;96826.69;108689;1279;22629;-90
2024/04/07 00:14:06;;;;;;;;;;;;;;;12.83;98.99;96823.02;108375;1281;124784;-89
2024/04/07 00:16:32;;;;;;;;;;;;;;;12.84;99.15;96824.39;108637;1281;22534;-89
2024/04/07 00:18:58;;;;;;;;;;;;;;;12.84;99.21;96821.46;108533;1281;124996;-89
2024/04/07 00:21:27;;;;;;;;;;;;;;;12.85;99.21;96819.52;108552;1281;23733;-89
2024/04/07 00:23:57;;;;;;;;;;;;;;;12.85;99.33;96820.34;108621;1281;23209;-89
2024/04/07 00:26:23;;;;;;;;;;;;;;;12.86;99.35;96823.07;108538;1275;125010;-89
2024/04/07 00:28:50;;;;;;;;;;;;;;;12.86;99.34;96827.82;108616;1275;22511;-89
2024/04/07 00:31:16;;;;;;;;;;;;;;;12.88;99.37;96825.90;108560;1275;124879;-89
2024/04/07 00:33:43;;;;;;;;;;;;;;;12.89;99.47;96826.60;108656;1272;22525;-89
2024/04/07 00:36:09;;;;;;;;;;;;;;;12.89;99.57;96827.67;108629;1280;23611;-89
2024/04/07 00:38:36;;;;;;;;;;;;;;;12.87;99.54;96824.98;108553;1279;124807;-89
2024/04/07 00:41:02;;;;;;;;;;;;;;;12.84;99.64;96823.27;108639;1281;25330;-89
2024/04/07 00:43:29;;;;;;;;;;;;;;;12.79;99.79;96825.36;108446;1278;124898;-88
2024/04/07 00:45:56;;;;;;;;;;;;;;;12.76;99.96;96826.85;108550;1280;22543;-89
2024/04/07 00:48:25;;;;;;;;;;;;;;;12.75;100.00;96826.24;108639;1276;22595;-89
2024/04/07 00:50:52;;;;;;;;;;;;;;;12.75;100.00;96827.80;108537;1280;124977;-88
2024/04/07 00:53:19;;;;;;;;;;;;;;;12.75;100.00;96823.87;108636;1272;22500;-89
2024/04/07 00:55:45;;;;;;;;;;;;;;;12.74;100.00;96824.98;108525;1281;125024;-89
2024/04/07 00:58:12;;;;;;;;;;;;;;;12.74;100.00;96822.62;108636;1279;22547;-89
2024/04/07 01:00:40;;;;;;;;;;;;;;;12.74;100.00;96825.35;108661;1281;22562;-89
2024/04/07 01:03:08;;;;;;;;;;;;;;;12.75;100.00;96827.48;108481;1276;125369;-89
2024/04/07 01:05:41;;;;;;;;;;;;;;;12.76;100.00;96826.16;108490;1281;25252;-88
2024/04/07 01:08:08;;;;;;;;;;;;;;;12.78;100.00;96825.95;108568;1278;125000;-88
2024/04/07 01:10:35;;;;;;;;;;;;;;;12.78;100.00;96829.59;108547;1281;22520;-88
2024/04/07 01:13:02;;;;;;;;;;;;;;;12.79;100.00;96835.35;108515;1276;125138;-88
2024/04/07 01:15:29;;;;;;;;;;;;;;;12.79;100.00;96834.42;108648;1281;22500;-88
2024/04/07 01:17:57;;;;;;;;;;;;;;;12.80;100.00;96837.48;108594;1279;22549;-88
2024/04/07 01:20:23;;;;;;;;;;;;;;;12.80;100.00;96835.52;108566;1275;124896;-88
2024/04/07 01:22:50;;;;;;;;;;;;;;;12.79;100.00;96838.79;108624;1275;22507;-89
2024/04/07 01:25:17;;;;;;;;;;;;;;;12.78;100.00;96839.30;108539;1275;125132;-88
2024/04/07 01:27:48;;;;;;;;;;;;;;;12.76;100.00;96836.80;108639;1275;25344;-89
2024/04/07 01:30:15;;;;;;;;;;;;;;;12.75;100.00;96833.19;108547;1281;22616;-88
2024/04/07 01:32:43;;;;;;;;;;;;;;;12.75;100.00;96834.39;108496;1281;125151;-89
2024/04/07 01:35:09;;;;;;;;;;;;;;;12.75;100.00;96829.73;108637;1265;22499;-88
2024/04/07 01:37:36;;;;;;;;;;;;;;;12.73;100.00;96831.23;108508;1271;125389;-89
2024/04/07 01:40:03;;;;;;;;;;;;;;;12.72;100.00;96833.59;108602;1281;22554;-88
2024/04/07 01:42:30;;;;;;;;;;;;;;;12.70;100.00;96836.91;108629;1275;22503;-89
2024/04/07 01:44:56;;;;;;;;;;;;;;;12.68;100.00;96837.34;108390;1275;124982;-88
2024/04/07 01:47:22;;;;;;;;;;;;;;;12.66;100.00;96834.86;108551;1279;22518;-88
2024/04/07 01:49:49;;;;;;;;;;;;;;;12.63;100.00;96834.05;108462;1281;124947;-88
2024/04/07 01:52:16;;;;;;;;;;;;;;;12.65;100.00;96834.61;108622;1281;22530;-88
2024/04/07 01:54:42;;;;;;;;;;;;;;;12.65;100.00;96836.46;108559;1281;23224;-88
2024/04/07 01:57:09;;;;;;;;;;;;;;;12.64;100.00;96838.14;108539;1279;124950;-88
2024/04/07 01:59:35;;;;;;;;;;;;;;;12.63;100.00;96838.06;108589;1278;25300;-89
2024/04/07 02:02:02;;;;;;;;;;;;;;;12.63;100.00;96845.52;108562;1274;125235;-89
2024/04/07 02:04:29;;;;;;;;;;;;;;;12.64;100.00;96848.05;108620;1280;22522;-88
2024/04/07 02:06:55;;;;;;;;;;;;;;;12.65;100.00;96845.17;108744;1281;23273;-88
2024/04/07 02:09:23;;;;;;;;;;;;;;;12.64;100.00;96841.63;108625;1280;22539;-89
2024/04/07 02:11:50;;;;;;;;;;;;;;;12.64;100.00;96841.23;108649;1276;22516;-88
2024/04/07 02:14:17;;;;;;;;;;;;;;;12.65;100.00;96838.79;108506;1280;125021;-88
2024/04/07 02:16:43;;;;;;;;;;;;;;;12.65;100.00;96837.42;108690;1272;22519;-88
2024/04/07 02:19:13;;;;;;;;;;;;;;;12.63;100.00;96832.84;108551;1274;125075;-89
2024/04/07 02:21:39;;;;;;;;;;;;;;;12.63;100.00;96830.47;108550;1276;22561;-88
2024/04/07 02:24:06;;;;;;;;;;;;;;;12.62;100.00;96832.15;108627;1278;22529;-89
2024/04/07 02:26:32;;;;;;;;;;;;;;;12.62;100.00;96833.11;108514;1281;124943;-88
2024/04/07 02:28:59;;;;;;;;;;;;;;;12.63;100.00;96839.27;108551;1281;22487;-88
2024/04/07 02:31:26;;;;;;;;;;;;;;;12.63;100.00;96836.77;108516;1278;126235;-88
2024/04/07 02:33:53;;;;;;;;;;;;;;;12.63;100.00;96838.45;108602;1275;22515;-89
2024/04/07 02:36:20;;;;;;;;;;;;;;;12.63;100.00;96838.41;108560;1281;22526;-88
2024/04/07 02:38:47;;;;;;;;;;;;;;;12.63;100.00;96838.81;108521;1282;124909;-88
2024/04/07 02:41:15;;;;;;;;;;;;;;;12.64;100.00;96839.18;108587;1281;22497;-88
2024/04/07 02:43:42;;;;;;;;;;;;;;;12.65;100.00;96841.56;108499;1279;125517;-88
2024/04/07 02:48:54;;;;;;;;;;;;;;;12.64;100.00;96842.36;108615;1281;22619;-89
2024/04/07 02:51:20;;;;;;;;;;;;;;;12.63;100.00;96837.57;108524;1281;124953;-89
2024/04/07 02:53:47;;;;;;;;;;;;;;;12.62;100.00;96830.67;108571;1282;22510;-88
2024/04/07 02:56:15;;;;;;;;;;;;;;;12.62;100.00;96828.63;108513;1276;125070;-89
2024/04/07 02:58:42;;;;;;;;;;;;;;;12.62;100.00;96824.88;108632;1281;23812;-89
2024/04/07 03:01:09;;;;;;;;;;;;;;;12.60;100.00;96822.31;108496;1280;125219;-89
2024/04/07 03:03:35;;;;;;;;;;;;;;;12.59;100.00;96821.73;108781;1280;23084;-89
2024/04/07 03:06:08;;;;;;;;;;;;;;;12.58;100.00;96820.40;108586;1280;25262;-89
2024/04/07 03:08:35;;;;;;;;;;;;;;;12.58;100.00;96812.98;108540;1273;125135;-89
2024/04/07 03:11:03;;;;;;;;;;;;;;;12.58;100.00;96813.46;108618;1280;22561;-89
2024/04/07 03:13:29;;;;;;;;;;;;;;;12.59;100.00;96815.44;108571;1275;125117;-89
2024/04/07 03:15:56;;;;;;;;;;;;;;;12.61;100.00;96822.39;108655;1279;22605;-89
2024/04/07 03:18:22;;;;;;;;;;;;;;;12.62;100.00;96826.41;108576;1278;22548;-89
2024/04/07 03:20:48;;;;;;;;;;;;;;;12.63;100.00;96825.73;108562;1279;124970;-90
2024/04/07 03:23:15;;;;;;;;;;;;;;;12.64;100.00;96827.92;108655;1273;22552;-89
2024/04/07 03:25:41;;;;;;;;;;;;;;;12.62;100.00;96826.17;108531;1281;125095;-88
2024/04/07 03:28:08;;;;;;;;;;;;;;;12.61;100.00;96828.58;108677;1278;22540;-89
2024/04/07 03:30:35;;;;;;;;;;;;;;;12.60;100.00;96829.36;108694;1275;22533;-89
2024/04/07 03:33:02;;;;;;;;;;;;;;;12.60;100.00;96825.83;108554;1279;125160;-89
2024/04/07 03:35:28;;;;;;;;;;;;;;;12.59;100.00;96825.58;108677;1278;24049;-89
2024/04/07 03:37:55;;;;;;;;;;;;;;;12.57;100.00;96826.44;108495;1276;125073;-90
2024/04/07 03:40:22;;;;;;;;;;;;;;;12.57;100.00;96831.73;108668;1274;22535;-89
2024/04/07 03:42:52;;;;;;;;;;;;;;;12.57;100.00;96837.08;108584;1280;22509;-88
2024/04/07 03:45:18;;;;;;;;;;;;;;;12.59;100.00;96838.93;108502;1275;124869;-89
2024/04/07 03:47:44;;;;;;;;;;;;;;;12.59;100.00;96837.54;108648;1281;22505;-89
2024/04/07 03:50:11;;;;;;;;;;;;;;;12.58;100.00;96837.33;108532;1280;125441;-88
2024/04/07 03:52:37;;;;;;;;;;;;;;;12.55;100.00;96835.33;108684;1280;22656;-89
2024/04/07 03:55:04;;;;;;;;;;;;;;;12.51;100.00;96832.29;108579;1278;125172;-89
2024/04/07 03:57:30;;;;;;;;;;;;;;;12.49;100.00;96836.35;108651;1272;22481;-88
2024/04/07 03:59:57;;;;;;;;;;;;;;;12.48;100.00;96837.19;108659;1276;24176;-89
2024/04/07 04:02:30;;;;;;;;;;;;;;;12.47;100.00;96835.17;108550;1279;124914;-89
2024/04/07 04:04:57;;;;;;;;;;;;;;;12.48;100.00;96834.02;108815;1281;22527;-89
2024/04/07 04:07:26;;;;;;;;;;;;;;;12.49;100.00;96837.00;108570;1278;125302;-89
2024/04/07 04:09:56;;;;;;;;;;;;;;;12.52;100.00;96832.70;108696;1281;23269;-88
2024/04/07 04:12:23;;;;;;;;;;;;;;;12.53;100.00;96833.24;108645;1278;22523;-89
2024/04/07 04:14:50;;;;;;;;;;;;;;;12.53;100.00;96835.64;108558;1281;125008;-89
2024/04/07 04:17:16;;;;;;;;;;;;;;;12.54;100.00;96834.67;108608;1278;23225;-89
2024/04/07 04:19:42;;;;;;;;;;;;;;;12.56;100.00;96831.52;108539;1279;125147;-88
2024/04/07 04:22:09;;;;;;;;;;;;;;;12.58;100.00;96829.86;108695;1281;25947;-88
2024/04/07 04:24:36;;;;;;;;;;;;;;;12.59;100.00;96832.84;108779;1279;22525;-89
2024/04/07 04:27:03;;;;;;;;;;;;;;;12.60;100.00;96828.60;108495;1280;124998;-89
2024/04/07 04:29:33;;;;;;;;;;;;;;;12.61;100.00;96836.79;108692;1281;22543;-89
2024/04/07 04:32:00;;;;;;;;;;;;;;;12.62;100.00;96838.02;108613;1278;124911;-89
2024/04/07 04:34:26;;;;;;;;;;;;;;;12.63;100.00;96837.02;108600;1275;25304;-89
2024/04/07 04:36:53;;;;;;;;;;;;;;;12.65;100.00;96835.98;108677;1279;22507;-89
2024/04/07 04:39:19;;;;;;;;;;;;;;;12.67;100.00;96833.16;108536;1280;125302;-89
2024/04/07 04:41:46;;;;;;;;;;;;;;;12.69;100.00;96836.91;108687;1280;25315;-89
2024/04/07 04:44:13;;;;;;;;;;;;;;;12.71;100.00;96832.18;108554;1281;125366;-89
2024/04/07 04:46:44;;;;;;;;;;;;;;;12.72;100.00;96835.28;108695;1279;22508;-89
2024/04/07 04:49:11;;;;;;;;;;;;;;;12.75;100.00;96834.11;108557;1279;125064;-88
2024/04/07 04:51:37;;;;;;;;;;;;;;;12.78;100.00;96833.25;108620;1272;22518;-90
2024/04/07 04:54:04;;;;;;;;;;;;;;;12.81;100.00;96838.41;108701;1276;25371;-89
2024/04/07 04:56:30;;;;;;;;;;;;;;;12.84;100.00;96836.64;108675;1277;125022;-89
2024/04/07 04:58:57;;;;;;;;;;;;;;;12.86;100.00;96835.84;108525;1279;22501;-89
2024/04/07 05:01:24;;;;;;;;;;;;;;;12.89;100.00;96832.89;108529;1273;125261;-89
2024/04/07 05:03:50;;;;;;;;;;;;;;;12.92;100.00;96832.36;108760;1280;22541;-88
2024/04/07 05:06:18;;;;;;;;;;;;;;;12.96;100.00;96838.37;108594;1278;25252;-88
2024/04/07 05:08:45;;;;;;;;;;;;;;;13.00;100.00;96840.45;108574;1280;124956;-89
2024/04/07 05:11:13;;;;;;;;;;;;;;;13.03;100.00;96836.13;108539;1273;24272;-90
2024/04/07 05:13:39;;;;;;;;;;;;;;;13.07;100.00;96837.40;108456;1281;125182;-88
2024/04/07 05:16:06;;;;;;;;;;;;;;;13.10;100.00;96841.36;108620;1280;22529;-88
2024/04/07 05:18:32;;;;;;;;;;;;;;;13.13;100.00;96845.28;108577;1280;22537;-89
2024/04/07 05:21:03;;;;;;;;;;;;;;;13.16;100.00;96848.20;108526;1281;125162;-89
2024/04/07 05:23:29;;;;;;;;;;;;;;;13.19;100.00;96853.23;108560;1280;22528;-88
2024/04/07 05:25:57;;;;;;;;;;;;;;;13.23;100.00;96851.40;108533;1277;124941;-90
2024/04/07 05:28:26;;;;;;;;;;;;;;;13.26;100.00;96852.27;108579;1279;22509;-89
2024/04/07 05:30:53;;;;;;;;;;;;;;;13.28;100.00;96848.67;108660;1276;22507;-87
2024/04/07 05:33:20;;;;;;;;;;;;;;;13.30;100.00;96845.31;108699;1273;125082;-87
2024/04/07 05:35:52;;;;;;;;;;;;;;;13.33;100.00;96844.32;108686;1281;22589;-89
2024/04/07 05:38:18;;;;;;;;;;;;;;;13.34;100.00;96849.85;108577;1280;124944;-88
2024/04/07 05:40:52;;;;;;;;;;;;;;;13.36;100.00;96852.93;108570;1281;23864;-88
2024/04/07 05:43:18;;;;;;;;;;;;;;;13.39;100.00;96857.16;108516;1280;125595;-88
2024/04/07 05:45:44;;;;;;;;;;;;;;;13.42;100.00;96855.05;108573;1277;22965;-88
2024/04/07 05:48:11;;;;;;;;;;;;;;;13.44;100.00;96854.07;108648;1280;22523;-88
2024/04/07 05:50:37;;;;;;;;;;;;;;;13.46;100.00;96851.75;108545;1273;125242;-89
2024/04/07 05:53:04;;;;;;;;;;;;;;;13.48;100.00;96853.66;108562;1277;25254;-88
2024/04/07 05:55:33;;;;;;;;;;;;;;;13.51;100.00;96857.91;108564;1273;125217;-88
2024/04/07 05:57:59;;;;;;;;;;;;;;;13.52;100.00;96854.80;108755;1278;22798;-89
2024/04/07 06:00:26;;;;;;;;;;;;;;;13.54;100.00;96854.81;108702;1275;22544;-88
2024/04/07 06:02:53;;;;;;;;;;;;;;;13.55;100.00;96849.88;108599;1273;125084;-89
2024/04/07 06:05:19;;;;;;;;;;;;;;;13.58;100.00;96851.33;108839;1276;22519;-89
2024/04/07 06:07:46;;;;;;;;;;;;;;;13.60;100.00;96851.59;108634;1281;125758;-88
2024/04/07 06:10:13;;;;;;;;;;;;;;;13.64;100.00;96858.52;108750;1281;24861;-89
2024/04/07 06:12:39;;;;;;;;;;;;;;;13.68;100.00;96856.68;108699;1259;22529;-89
2024/04/07 06:15:06;;;;;;;;;;;;;;;13.73;100.00;96859.33;108613;1279;124897;-90
2024/04/07 06:17:32;;;;;;;;;;;;;;;13.78;100.00;96855.70;108704;1281;23648;-87
2024/04/07 06:19:59;;;;;;;;;;;;;;;13.84;100.00;96854.86;108585;1276;124949;-89
2024/04/07 06:22:26;;;;;;;;;;;;;;;13.90;100.00;96856.04;108700;1280;26650;-87
2024/04/07 06:24:54;;;;;;;;;;;;;;;13.98;100.00;96859.73;108631;1282;27778;-89
2024/04/07 06:27:20;;;;;;;;;;;;;;;14.04;100.00;96858.18;108634;1277;125283;-87
2024/04/07 06:29:47;;;;;;;;;;;;;;;14.11;100.00;96858.38;108651;1281;24670;-87
2024/04/07 06:32:13;;;;;;;;;;;;;;;14.18;100.00;96857.98;108524;1276;126095;-88
2024/04/07 06:34:39;;;;;;;;;;;;;;;14.25;100.00;96856.16;108604;1263;22554;-88
2024/04/07 06:37:06;;;;;;;;;;;;;;;14.35;100.00;96858.91;108521;1273;125094;-89
2024/04/07 06:39:32;;;;;;;;;;;;;;;14.44;100.00;96862.83;108681;1280;25416;-88
2024/04/07 06:41:59;;;;;;;;;;;;;;;14.52;100.00;96865.84;108696;1280;22505;-88
2024/04/07 06:44:25;;;;;;;;;;;;;;;14.61;100.00;96868.67;108595;1281;124950;-88
2024/04/07 06:46:53;;;;;;;;;;;;;;;14.70;100.00;96871.95;108711;1280;23772;-88
2024/04/07 06:49:19;;;;;;;;;;;;;;;14.78;100.00;96875.38;108546;1280;125073;-89
2024/04/07 06:51:46;;;;;;;;;;;;;;;14.85;100.00;96875.02;108701;1276;22558;-89
2024/04/07 06:54:12;;;;;;;;;;;;;;;14.94;100.00;96875.96;108612;1281;22525;-89
2024/04/07 06:56:39;;;;;;;;;;;;;;;15.04;100.00;96880.98;108592;1279;124973;-89
2024/04/07 06:59:06;;;;;;;;;;;;;;;15.12;100.00;96881.20;108740;1273;22496;-89
2024/04/07 07:01:32;;;;;;;;;;;;;;;15.20;100.00;96885.77;108613;1281;125038;-90
2024/04/07 07:03:59;;;;;;;;;;;;;;;15.31;100.00;96886.20;108627;1282;22552;-89
2024/04/07 07:06:25;;;;;;;;;;;;;;;15.40;100.00;96888.39;108758;1272;22518;-88
2024/04/07 07:08:52;;;;;;;;;;;;;;;15.47;100.00;96884.09;108765;1273;124943;-89
2024/04/07 07:11:18;;;;;;;;;;;;;;;15.54;100.00;96889.41;108880;1280;23344;-89
2024/04/07 07:13:45;;;;;;;;;;;;;;;15.64;100.00;96896.35;108577;1280;125182;-89
2024/04/07 07:16:12;;;;;;;;;;;;;;;15.73;100.00;96896.19;108740;1269;23917;-88
2024/04/07 07:18:38;;;;;;;;;;;;;;;15.87;100.00;96897.67;108686;1281;22559;-88
2024/04/07 07:21:06;;;;;;;;;;;;;;;16.01;100.00;96898.80;108550;1277;125053;-88
2024/04/07 07:23:34;;;;;;;;;;;;;;;16.10;100.00;96903.06;108647;1276;22530;-90
2024/04/07 07:26:02;;;;;;;;;;;;;;;16.17;100.00;96900.88;108888;1281;126057;-91
2024/04/07 07:28:29;;;;;;;;;;;;;;;16.29;100.00;96904.58;109136;1273;22535;-91
2024/04/07 07:30:56;;;;;;;;;;;;;;;16.40;100.00;96905.27;108835;1279;24186;-90
2024/04/07 07:33:22;;;;;;;;;;;;;;;16.52;99.91;96902.54;108667;1276;125560;-91
2024/04/07 07:35:49;;;;;;;;;;;;;;;16.65;99.18;96894.73;108812;1281;24239;-90
2024/04/07 07:38:16;;;;;;;;;;;;;;;16.82;99.30;96898.27;108802;1281;125127;-89
2024/04/07 07:40:42;;;;;;;;;;;;;;;16.97;99.23;96897.88;108929;1273;23698;-89
2024/04/07 07:43:09;;;;;;;;;;;;;;;17.05;99.21;96889.63;108638;1276;125445;-90
2024/04/07 07:45:35;;;;;;;;;;;;;;;17.14;98.95;96892.55;108784;1278;23137;-89
2024/04/07 07:48:02;;;;;;;;;;;;;;;17.26;96.60;96892.67;108726;1271;22593;-90
2024/04/07 07:50:29;;;;;;;;;;;;;;;17.43;96.17;96893.71;108636;1281;125456;-89
2024/04/07 07:52:56;;;;;;;;;;;;;;;17.62;95.20;96894.07;108810;1281;22547;-90
2024/04/07 07:55:23;;;;;;;;;;;;;;;17.80;94.67;96897.92;108753;1281;125174;-90
2024/04/07 07:57:49;;;;;;;;;;;;;;;17.89;96.09;96893.55;108776;1281;23208;-90
2024/04/07 08:00:16;;;;;;;;;;;;;;;17.98;97.20;96896.02;108750;1282;22529;-89
2024/04/07 08:02:42;;;;;;;;;;;;;;;18.09;95.37;96894.80;108621;1281;124779;-90
2024/04/07 08:05:08;;;;;;;;;;;;;;;18.24;94.58;96898.05;108803;1281;23243;-89
2024/04/07 08:07:35;;;;;;;;;;;;;;;18.36;93.50;96898.86;108609;1281;125598;-89
2024/04/07 08:10:03;;;;;;;;;;;;;;;18.43;94.85;96902.24;108768;1281;22641;-90
2024/04/07 08:12:30;;;;;;;;;;;;;;;18.52;94.99;96901.61;108722;1276;25383;-90
2024/04/07 08:14:56;;;;;;;;;;;;;;;18.59;93.89;96899.48;108702;1281;124900;-90
2024/04/07 08:17:22;;;;;;;;;;;;;;;18.66;93.95;96900.52;108795;1281;25401;-90
2024/04/07 08:19:49;;;;;;;;;;;;;;;18.73;93.78;96903.24;108707;1276;124793;-90
2024/04/07 08:22:15;;;;;;;;;;;;;;;18.79;92.61;96901.14;108791;1275;23056;-90
2024/04/07 08:24:42;;;;;;;;;;;;;;;18.84;92.18;96901.64;108698;1281;24323;-89
2024/04/07 08:27:08;;;;;;;;;;;;;;;18.89;92.93;96903.21;108737;1280;124771;-90
2024/04/07 08:29:35;;;;;;;;;;;;;;;18.95;91.80;96904.06;108769;1280;22563;-90
2024/04/07 08:32:02;;;;;;;;;;;;;;;19.03;92.20;96908.34;108787;1280;125207;-90
2024/04/07 08:34:28;;;;;;;;;;;;;;;19.10;92.67;96906.27;108858;1280;22529;-89
2024/04/07 08:36:55;;;;;;;;;;;;;;;19.18;92.50;96904.95;108840;1280;24980;-89
2024/04/07 08:39:21;;;;;;;;;;;;;;;19.27;91.67;96910.39;108792;1278;124656;-90
2024/04/07 08:41:48;;;;;;;;;;;;;;;19.33;90.88;96906.84;108875;1273;22506;-90
2024/04/07 08:44:14;;;;;;;;;;;;;;;19.37;90.11;96902.17;108840;1273;124813;-91
2024/04/07 08:46:41;;;;;;;;;;;;;;;19.45;89.64;96905.91;108873;1278;23390;-91
2024/04/07 08:49:07;;;;;;;;;;;;;;;19.55;89.82;96906.88;108787;1273;124945;-90
2024/04/07 08:51:37;;;;;;;;;;;;;;;19.62;89.52;96905.73;108852;1281;23946;-90
2024/04/07 08:54:03;;;;;;;;;;;;;;;19.69;88.99;96906.39;108774;1281;22659;-90
2024/04/07 08:56:30;;;;;;;;;;;;;;;19.74;88.96;96903.84;108617;1277;125412;-91
2024/04/07 08:58:56;;;;;;;;;;;;;;;19.80;88.33;96902.54;108850;1281;22562;-90
2024/04/07 09:01:24;;;;;;;;;;;;;;;19.87;88.52;96900.69;108702;1280;126395;-91
2024/04/07 09:03:51;;;;;;;;;;;;;;;19.95;86.85;96899.73;108806;1275;22532;-91
2024/04/07 09:06:18;;;;;;;;;;;;;;;20.05;86.11;96898.60;108833;1280;22737;-90
2024/04/07 09:08:44;;;;;;;;;;;;;;;20.12;85.98;96895.42;108741;1281;124849;-90
2024/04/07 09:11:11;;;;;;;;;;;;;;;20.20;85.35;96891.55;108696;1275;22522;-89
2024/04/07 09:13:38;;;;;;;;;;;;;;;20.37;84.02;96893.77;108831;1280;125340;-90
2024/04/07 09:16:04;;;;;;;;;;;;;;;20.47;82.69;96895.04;108968;1269;23809;-90
2024/04/07 09:18:31;;;;;;;;;;;;;;;20.53;82.95;96889.66;108857;1281;22498;-91
2024/04/07 09:20:57;;;;;;;;;;;;;;;20.59;83.07;96887.98;108716;1278;125607;-90
2024/04/07 09:23:24;;;;;;;;;;;;;;;20.64;82.78;96879.27;108765;1282;22525;-90
2024/04/07 09:25:51;;;;;;;;;;;;;;;20.69;83.46;96878.59;108714;1281;125387;-89
2024/04/07 09:28:17;;;;;;;;;;;;;;;20.76;82.46;96876.48;108826;1273;22521;-90
2024/04/07 09:30:44;;;;;;;;;;;;;;;20.86;81.91;96879.40;108731;1281;22548;-91
2024/04/07 09:33:11;;;;;;;;;;;;;;;20.92;79.28;96876.23;108711;1278;124719;-91
2024/04/07 09:35:38;;;;;;;;;;;;;;;21.00;79.23;96873.15;108696;1277;23904;-91
2024/04/07 09:38:05;;;;;;;;;;;;;;;21.08;81.28;96873.99;108597;1281;124077;-90
2024/04/07 09:40:32;;;;;;;;;;;;;;;21.17;80.58;96875.02;108834;1282;25257;-90
2024/04/07 09:42:58;;;;;;;;;;;;;;;21.24;79.48;96869.55;108686;1281;124965;-91
2024/04/07 09:45:25;;;;;;;;;;;;;;;21.35;79.63;96875.36;108899;1277;23752;-91
2024/04/07 09:47:57;;;;;;;;;;;;;;;21.41;78.96;96866.95;108917;1280;24225;-89
2024/04/07 09:50:27;;;;;;;;;;;;;;;21.47;79.04;96861.08;108761;1281;125207;-89
2024/04/07 09:52:57;;;;;;;;;;;;;;;21.55;78.91;96862.23;108795;1281;22889;-90
2024/04/07 09:55:24;;;;;;;;;;;;;;;21.63;78.25;96856.89;108701;1267;124413;-90
2024/04/07 09:57:50;;;;;;;;;;;;;;;21.68;77.68;96857.79;108740;1281;23232;-91
2024/04/07 10:00:16;;;;;;;;;;;;;;;21.73;77.56;96855.27;108793;1281;22707;-90
2024/04/07 10:02:45;;;;;;;;;;;;;;;21.76;77.34;96857.31;108659;1259;124108;-90
2024/04/07 10:05:12;;;;;;;;;;;;;;;21.76;77.00;96855.94;108812;1278;24431;-90
2024/04/07 10:07:38;;;;;;;;;;;;;;;21.79;76.58;96855.66;108680;1281;124318;-90
2024/04/07 10:10:05;;;;;;;;;;;;;;;21.81;75.55;96852.38;108795;1281;22537;-90
2024/04/07 10:12:32;;;;;;;;;;;;;;;21.84;74.49;96850.95;108772;1275;22500;-90
2024/04/07 10:14:58;;;;;;;;;;;;;;;21.90;73.11;96845.80;108637;1279;124018;-91
2024/04/07 10:17:25;;;;;;;;;;;;;;;21.97;74.19;96838.23;108733;1275;22797;-90
2024/04/07 10:19:53;;;;;;;;;;;;;;;22.03;73.51;96835.41;108737;1273;124228;-90
2024/04/07 10:22:20;;;;;;;;;;;;;;;22.11;72.90;96836.48;108378;1281;499847;-91
2024/04/07 10:24:48;;;;;;;;;;;;;;;22.15;72.19;96836.65;108809;1266;25233;-89
2024/04/07 10:27:14;;;;;;;;;;;;;;;22.21;72.02;96836.20;108691;1281;124331;-90
2024/04/07 10:29:41;;;;;;;;;;;;;;;22.29;71.06;96838.64;108820;1281;25266;-90
2024/04/07 10:32:24;;;;;;;;;;;;;;;22.37;68.26;96836.67;108666;1275;124123;-90
2024/04/07 10:34:55;;;;;;;;;;;;;;;22.44;66.78;96836.72;108822;1281;22553;-90
2024/04/07 10:37:23;;;;;;;;;;;;;;;22.54;66.07;96836.78;108756;1280;124348;-91
2024/04/07 10:39:50;;;;;;;;;;;;;;;22.65;64.94;96837.36;108856;1280;22536;-91
2024/04/07 10:42:16;;;;;;;;;;;;;;;22.75;65.51;96836.56;108876;1280;26422;-90
2024/04/07 10:44:44;;;;;;;;;;;;;;;22.86;65.96;96840.38;108739;1280;124922;-91
2024/04/07 10:47:11;;;;;;;;;;;;;;;22.97;66.73;96836.58;108875;1280;23294;-90
2024/04/07 10:49:37;;;;;;;;;;;;;;;23.06;64.23;96834.42;108579;1275;124395;-91
2024/04/07 10:52:04;;;;;;;;;;;;;;;23.17;62.06;96834.17;108791;1281;22730;-91
2024/04/07 10:54:32;;;;;;;;;;;;;;;23.25;63.70;96831.48;108855;1275;22548;-90
2024/04/07 10:56:58;;;;;;;;;;;;;;;23.31;63.33;96837.02;108769;1275;124555;-90
2024/04/07 10:59:25;;;;;;;;;;;;;;;23.42;62.91;96833.55;108815;1280;25391;-92
2024/04/07 11:01:51;;;;;;;;;;;;;;;23.51;61.81;96835.48;108771;1278;124968;-91
2024/04/07 11:04:17;;;;;;;;;;;;;;;23.55;58.91;96834.14;108853;1272;22553;-91
2024/04/07 11:06:44;;;;;;;;;;;;;;;23.61;60.18;96831.58;108862;1280;22492;-91
2024/04/07 11:09:11;;;;;;;;;;;;;;;23.70;59.44;96833.53;108728;1275;124330;-91
2024/04/07 11:11:42;;;;;;;;;;;;;;;23.75;59.05;96831.36;108837;1281;23229;-90
2024/04/07 11:14:08;;;;;;;;;;;;;;;23.80;58.68;96835.55;108684;1278;124087;-90
2024/04/07 11:16:35;;;;;;;;;;;;;;;23.89;59.63;96831.07;108791;1281;22556;-90
2024/04/07 11:19:03;;;;;;;;;;;;;;;23.92;58.47;96829.05;108720;1281;124154;-90
2024/04/07 11:21:29;;;;;;;;;;;;;;;23.95;57.60;96828.37;108711;1278;22501;-90
2024/04/07 11:23:56;;;;;;;;;;;;;;;24.00;57.77;96827.02;108705;1281;22544;-92
2024/04/07 11:26:23;;;;;;;;;;;;;;;24.05;56.59;96824.27;108646;1281;124689;-90
2024/04/07 11:28:50;;;;;;;;;;;;;;;24.08;56.16;96820.05;108807;1275;22503;-91
2024/04/07 11:31:18;;;;;;;;;;;;;;;24.12;57.99;96824.13;108677;1281;124440;-91
2024/04/07 11:33:45;;;;;;;;;;;;;;;24.17;56.19;96821.80;108864;1278;22634;-90
2024/04/07 11:36:12;;;;;;;;;;;;;;;24.16;55.89;96821.20;108755;1281;23208;-91
2024/04/07 11:38:38;;;;;;;;;;;;;;;24.18;56.49;96822.87;108791;1280;124099;-91
2024/04/07 11:41:05;;;;;;;;;;;;;;;24.22;55.98;96822.09;108832;1281;22586;-91
2024/04/07 11:43:32;;;;;;;;;;;;;;;24.25;56.85;96822.60;108621;1275;124695;-91
2024/04/07 11:45:59;;;;;;;;;;;;;;;24.28;56.47;96819.21;108826;1281;25395;-91
2024/04/07 11:48:27;;;;;;;;;;;;;;;24.27;56.13;96817.88;108758;1275;22552;-90
2024/04/07 11:50:54;;;;;;;;;;;;;;;24.29;55.39;96814.73;108661;1281;124321;-91
2024/04/07 11:53:20;;;;;;;;;;;;;;;24.33;54.92;96809.74;108730;1275;22536;-91
2024/04/07 11:55:47;;;;;;;;;;;;;;;24.35;55.33;96812.31;108695;1281;124254;-91
2024/04/07 11:58:13;;;;;;;;;;;;;;;24.39;55.24;96810.25;108780;1281;26420;-91
2024/04/07 12:00:39;;;;;;;;;;;;;;;24.41;54.82;96810.64;108747;1275;22517;-90
2024/04/07 12:03:06;;;;;;;;;;;;;;;24.39;55.22;96809.23;108629;1281;124124;-91
2024/04/07 12:05:32;;;;;;;;;;;;;;;24.40;54.78;96807.88;108834;1278;24176;-90
2024/04/07 12:07:59;;;;;;;;;;;;;;;24.47;56.73;96805.30;108671;1275;124391;-91
2024/04/07 12:10:26;;;;;;;;;;;;;;;24.56;56.78;96803.31;108663;1280;23325;-91
2024/04/07 12:12:52;;;;;;;;;;;;;;;24.63;56.60;96801.43;108738;1281;22506;-91
2024/04/07 12:15:19;;;;;;;;;;;;;;;24.64;54.88;96801.81;108638;1281;123894;-91
2024/04/07 12:17:45;;;;;;;;;;;;;;;24.62;55.13;96799.52;108671;1276;22947;-91
2024/04/07 12:20:12;;;;;;;;;;;;;;;24.64;55.95;96798.14;108620;1281;124661;-91
2024/04/07 12:22:38;;;;;;;;;;;;;;;24.61;53.80;96793.98;108750;1275;22544;-91
2024/04/07 12:25:05;;;;;;;;;;;;;;;24.58;54.30;96794.10;108618;1275;124252;-91
2024/04/07 12:27:31;;;;;;;;;;;;;;;24.60;53.40;96792.55;108870;1280;22510;-91
2024/04/07 12:29:58;;;;;;;;;;;;;;;24.63;53.77;96790.22;108887;1279;24221;-91